Time;durP1;ratioP1;P1;durP2;ratioP2;P2;SDS_P1;SDS_P2;PMS_P1;PMS_P2;Temp;Humidity;BMP_temperature;BMP_pressure;BME280_temperature;BME280_humidity;BME280_pressure;Samples;Min_cycle;Max_cycle;Signal;HPM_P1;HPM_P2
2022/03/22 00:02:19;;;;;;;57.03;27.17;;;;;;;2.53;nan;96511.19;5144766;27;20199;-70
2022/03/22 00:04:45;;;;;;;65.53;28.87;;;;;;;2.77;nan;96507.47;5145324;27;21203;-70
2022/03/22 00:07:12;;;;;;;60.87;29.00;;;;;;;2.86;nan;96508.50;5145533;27;20199;-71
2022/03/22 00:09:39;;;;;;;55.47;26.20;;;;;;;2.81;nan;96500.03;5146564;27;20781;-70
2022/03/22 00:12:07;;;;;;;64.90;27.80;;;;;;;2.74;nan;96504.06;5146239;27;20204;-70
2022/03/22 00:14:34;;;;;;;64.63;27.87;;;;;;;2.66;nan;96499.75;5143516;27;20195;-70
2022/03/22 00:17:03;;;;;;;65.83;28.87;;;;;;;2.49;nan;96496.88;5146355;27;20230;-71
2022/03/22 00:19:31;;;;;;;70.37;30.17;;;;;;;2.52;nan;96496.09;5147364;27;20212;-70
2022/03/22 00:21:58;;;;;;;85.25;33.42;;;;;;;2.45;nan;96495.16;5143707;27;20199;-70
2022/03/22 00:24:25;;;;;;;59.47;28.87;;;;;;;2.39;nan;96490.84;5147392;27;20195;-71
2022/03/22 00:26:52;;;;;;;56.10;24.17;;;;;;;2.53;nan;96488.59;5144674;27;20289;-70
2022/03/22 00:29:18;;;;;;;51.77;22.23;;;;;;;2.59;nan;96487.88;5146484;27;20203;-70
2022/03/22 00:31:45;;;;;;;47.30;20.57;;;;;;;2.87;nan;96485.09;5146007;27;20207;-70
2022/03/22 00:34:13;;;;;;;39.40;19.80;;;;;;;2.93;nan;96490.22;5146434;27;20199;-70
2022/03/22 00:36:41;;;;;;;34.37;17.30;;;;;;;3.07;nan;96487.97;5145283;27;20768;-70
2022/03/22 00:39:08;;;;;;;36.53;16.70;;;;;;;2.95;nan;96483.56;5147125;27;20226;-70
2022/03/22 00:41:35;;;;;;;37.33;18.37;;;;;;;2.72;nan;96478.09;5145195;27;20662;-70
2022/03/22 00:44:02;;;;;;;46.20;22.23;;;;;;;2.80;nan;96488.28;5144489;27;20204;-70
2022/03/22 00:46:29;;;;;;;45.67;21.33;;;;;;;2.94;nan;96481.03;5146042;27;20583;-71
2022/03/22 00:48:55;;;;;;;45.67;21.83;;;;;;;2.85;nan;96485.88;5140026;27;20218;-70
2022/03/22 00:51:23;;;;;;;45.63;21.00;;;;;;;3.07;nan;96485.44;5145742;27;20313;-71
2022/03/22 00:53:53;;;;;;;49.47;19.83;;;;;;;3.21;nan;96483.19;5142004;27;21106;-70
2022/03/22 00:56:19;;;;;;;41.93;20.60;;;;;;;3.16;nan;96488.13;5143248;27;20199;-70
2022/03/22 01:00:01;;;;;;;36.07;18.73;;;;;;;3.38;nan;96484.31;5143701;27;20243;-70
2022/03/22 01:01:33;;;;;;;37.00;18.07;;;;;;;3.30;nan;96486.69;5144028;27;20219;-69
2022/03/22 01:04:00;;;;;;;39.67;19.13;;;;;;;3.26;nan;96482.44;5144417;27;20208;-70
2022/03/22 01:06:26;;;;;;;47.17;20.60;;;;;;;3.50;nan;96487.03;5142940;27;20683;-70
2022/03/22 01:08:55;;;;;;;29.63;17.53;;;;;;;3.62;nan;96483.88;5145174;27;20239;-69
2022/03/22 01:11:21;;;;;;;36.50;17.27;;;;;;;3.38;nan;96471.75;5145088;27;20205;-69
2022/03/22 01:13:48;;;;;;;44.40;19.70;;;;;;;3.11;nan;96463.75;5144276;27;20207;-70
2022/03/22 01:16:16;;;;;;;35.57;18.47;;;;;;;2.97;nan;96471.88;5142963;27;20203;-69
2022/03/22 01:18:42;;;;;;;43.03;21.00;;;;;;;2.95;nan;96472.69;5143632;27;20230;-70
2022/03/22 01:21:10;;;;;;;42.67;21.03;;;;;;;3.07;nan;96462.84;5145708;27;20226;-70
2022/03/22 01:23:37;;;;;;;43.03;19.23;;;;;;;2.95;nan;96468.50;5144587;27;20226;-72
2022/03/22 01:26:06;;;;;;;35.33;18.27;;;;;;;3.11;nan;96452.03;5144314;27;20202;-70
2022/03/22 01:28:33;;;;;;;36.70;17.77;;;;;;;3.46;nan;96465.22;5143796;27;21286;-70
2022/03/22 01:31:00;;;;;;;34.20;18.43;;;;;;;3.28;nan;96453.16;5145621;27;20194;-70
2022/03/22 01:33:27;;;;;;;30.83;16.90;;;;;;;2.84;nan;96464.09;5144878;27;20230;-70
2022/03/22 01:35:53;;;;;;;26.97;14.57;;;;;;;2.63;nan;96460.38;5141344;27;20210;-71
2022/03/22 01:38:22;;;;;;;26.10;15.37;;;;;;;2.43;nan;96471.69;5144458;27;21114;-71
2022/03/22 01:40:49;;;;;;;25.43;14.17;;;;;;;2.84;nan;96459.91;5144608;27;20286;-71
2022/03/22 01:43:17;;;;;;;30.90;13.30;;;;;;;2.49;nan;96451.72;5142827;27;20201;-71
2022/03/22 01:45:49;;;;;;;22.00;12.33;;;;;;;2.40;nan;96451.53;5144961;27;20210;-70
2022/03/22 01:48:16;;;;;;;27.40;13.83;;;;;;;2.46;nan;96451.66;5144429;27;20226;-70
2022/03/22 01:50:43;;;;;;;22.87;13.40;;;;;;;2.67;nan;96446.22;5146029;27;20203;-71
2022/03/22 01:53:11;;;;;;;23.60;13.77;;;;;;;2.84;nan;96444.84;5144542;27;20199;-71
2022/03/22 01:55:39;;;;;;;24.23;13.37;;;;;;;2.78;nan;96446.41;5143361;27;20191;-71
2022/03/22 01:58:06;;;;;;;21.00;12.60;;;;;;;2.88;nan;96441.59;5145191;27;20233;-71
2022/03/22 02:00:34;;;;;;;20.03;11.63;;;;;;;2.89;nan;96439.94;5144076;27;20226;-71
2022/03/22 02:05:55;;;;;;;19.37;11.30;;;;;;;2.84;nan;96451.53;5142924;27;20210;-71
2022/03/22 02:08:24;;;;;;;25.73;11.43;;;;;;;2.84;nan;96444.00;5143191;27;20202;-71
2022/03/22 02:10:51;;;;;;;18.50;10.73;;;;;;;2.91;nan;96445.81;5143874;27;20840;-71
2022/03/22 02:13:18;;;;;;;19.93;10.37;;;;;;;3.11;nan;96449.53;5144903;27;20637;-70
2022/03/22 02:15:50;;;;;;;17.50;10.93;;;;;;;3.39;nan;96441.63;5143884;27;20673;-70
2022/03/22 02:18:17;;;;;;;13.93;10.23;;;;;;;3.35;nan;96434.00;5142455;27;20227;-70
2022/03/22 02:20:45;;;;;;;18.67;10.03;;;;;;;3.11;nan;96431.94;5145447;27;20234;-70
2022/03/22 02:23:18;;;;;;;14.18;8.93;;;;;;;2.96;nan;96431.69;5144376;27;20195;-71
2022/03/22 02:25:49;;;;;;;18.50;10.88;;;;;;;2.88;nan;96430.69;5144539;27;20327;-71
2022/03/22 02:28:15;;;;;;;20.17;11.50;;;;;;;2.84;nan;96437.31;5141452;27;20231;-71
2022/03/22 02:30:44;;;;;;;25.27;14.00;;;;;;;2.96;nan;96439.22;5144433;27;20963;-71
2022/03/22 02:33:11;;;;;;;22.00;13.35;;;;;;;2.95;nan;96430.84;5143545;27;20489;-71
2022/03/22 02:35:39;;;;;;;27.77;14.45;;;;;;;2.90;nan;96419.03;5144975;27;20708;-71
2022/03/22 02:38:07;;;;;;;24.20;14.27;;;;;;;2.99;nan;96425.03;5142970;27;21386;-71
2022/03/22 02:40:33;;;;;;;28.17;14.13;;;;;;;2.80;nan;96432.22;5144165;27;21098;-72
2022/03/22 02:43:02;;;;;;;29.77;15.47;;;;;;;2.41;nan;96438.19;5141397;27;20201;-72
2022/03/22 02:45:29;;;;;;;28.43;15.80;;;;;;;2.71;nan;96437.94;5143842;27;20733;-71
2022/03/22 02:47:56;;;;;;;26.77;14.67;;;;;;;3.00;nan;96433.41;5140725;27;20709;-71
2022/03/22 02:50:23;;;;;;;25.03;15.23;;;;;;;3.02;nan;96436.78;5144217;27;20199;-71
2022/03/22 02:52:51;;;;;;;29.75;14.32;;;;;;;3.16;nan;96437.91;5144234;27;20535;-72
2022/03/22 02:55:18;;;;;;;27.20;14.27;;;;;;;2.93;nan;96441.69;5145051;27;20215;-71
2022/03/22 02:57:44;;;;;;;26.20;14.50;;;;;;;2.94;nan;96435.84;5143992;27;20332;-71
2022/03/22 03:00:14;;;;;;;19.80;12.23;;;;;;;2.64;nan;96441.97;5144319;27;20270;-71
2022/03/22 03:02:43;;;;;;;20.90;12.57;;;;;;;2.51;nan;96440.03;5142835;27;20191;-71
2022/03/22 03:05:10;;;;;;;28.17;12.00;;;;;;;2.88;nan;96448.28;5144646;27;20195;-71
2022/03/22 03:07:37;;;;;;;21.07;13.43;;;;;;;2.70;nan;96453.81;5142859;27;20285;-70
2022/03/22 03:10:05;;;;;;;24.90;13.37;;;;;;;2.22;nan;96451.19;5144156;27;20309;-71
2022/03/22 03:12:32;;;;;;;34.03;17.13;;;;;;;2.62;nan;96442.75;5144375;27;20727;-71
2022/03/22 03:14:59;;;;;;;33.20;17.10;;;;;;;2.49;nan;96451.72;5143696;27;20827;-71
2022/03/22 03:17:27;;;;;;;42.93;20.47;;;;;;;2.77;nan;96444.72;5146816;27;20266;-71
2022/03/22 03:19:54;;;;;;;37.90;20.57;;;;;;;2.91;nan;96440.81;5149115;27;20341;-71
2022/03/22 03:22:21;;;;;;;38.30;20.60;;;;;;;2.74;nan;96435.44;5148409;27;20200;-71
2022/03/22 03:24:48;;;;;;;38.83;19.87;;;;;;;2.67;nan;96428.66;5147616;27;20199;-71
2022/03/22 03:27:15;;;;;;;37.20;18.77;;;;;;;2.39;nan;96425.59;5147253;27;20207;-71
2022/03/22 03:29:42;;;;;;;34.13;19.10;;;;;;;2.57;nan;96439.31;5146467;27;20237;-71
2022/03/22 03:32:09;;;;;;;37.67;19.60;;;;;;;2.56;nan;96437.63;5147379;27;20250;-71
2022/03/22 03:34:37;;;;;;;35.03;18.43;;;;;;;2.44;nan;96434.91;5145347;27;20235;-71
2022/03/22 03:37:05;;;;;;;35.40;17.90;;;;;;;2.30;nan;96439.63;5144890;27;20203;-71
2022/03/22 03:39:32;;;;;;;29.93;14.30;;;;;;;2.45;nan;96444.13;5146967;27;20262;-71
2022/03/22 03:42:00;;;;;;;29.30;13.63;;;;;;;2.22;nan;96441.16;5143417;27;20199;-71
2022/03/22 03:47:13;;;;;;;30.50;13.23;;;;;;;2.27;nan;96442.06;5142701;27;20238;-71
2022/03/22 03:49:43;;;;;;;21.50;13.60;;;;;;;2.48;nan;96434.97;5144640;27;20687;-70
2022/03/22 03:52:12;;;;;;;27.20;14.57;;;;;;;2.46;nan;96440.78;5145079;27;20198;-70
2022/03/22 03:54:39;;;;;;;23.57;15.30;;;;;;;2.45;nan;96434.06;5147776;27;20670;-71
2022/03/22 03:57:07;;;;;;;25.17;14.23;;;;;;;2.28;nan;96432.06;5147252;27;20303;-71
2022/03/22 03:59:35;;;;;;;27.93;15.37;;;;;;;2.00;nan;96435.66;5144270;27;20226;-71
2022/03/22 04:02:02;;;;;;;29.73;17.53;;;;;;;2.00;nan;96439.81;5143082;27;20207;-71
2022/03/22 04:04:29;;;;;;;23.93;13.93;;;;;;;2.31;nan;96442.16;5145615;27;20206;-71
2022/03/22 04:06:57;;;;;;;26.90;14.87;;;;;;;2.33;nan;96440.53;5144190;27;20310;-70
2022/03/22 04:09:24;;;;;;;26.83;14.83;;;;;;;2.33;nan;96445.56;5148980;27;20249;-70
2022/03/22 04:11:51;;;;;;;26.90;15.10;;;;;;;1.81;nan;96446.09;5147345;27;20205;-70
2022/03/22 04:14:18;;;;;;;34.53;15.53;;;;;;;1.41;nan;96441.00;5147583;27;21258;-71
2022/03/22 04:16:46;;;;;;;29.47;14.87;;;;;;;1.28;nan;96440.69;5145814;27;20210;-71
2022/03/22 04:19:13;;;;;;;25.73;14.63;;;;;;;1.78;nan;96438.50;5144631;27;20317;-71
2022/03/22 04:21:40;;;;;;;26.60;14.17;;;;;;;1.99;nan;96443.13;5147792;27;20199;-71
2022/03/22 04:24:10;;;;;;;24.43;13.90;;;;;;;2.13;nan;96435.94;5147565;27;20234;-71
2022/03/22 04:26:43;;;;;;;26.23;14.53;;;;;;;2.10;nan;96443.38;5144619;27;20331;-71
2022/03/22 04:34:43;;;;;;;32.53;19.97;;;;;;;1.70;nan;96443.38;5146471;27;20291;-71
2022/03/22 04:37:12;;;;;;;55.45;26.67;;;;;;;1.59;nan;96443.94;5145192;27;20209;-70
2022/03/22 04:39:41;;;;;;;32.37;20.23;;;;;;;1.63;nan;96445.69;5145519;27;20321;-71
2022/03/22 04:42:09;;;;;;;37.40;17.60;;;;;;;1.65;nan;96441.56;5145432;27;20199;-71
2022/03/22 04:44:36;;;;;;;33.30;16.87;;;;;;;2.09;nan;96439.19;5145565;27;20642;-70
2022/03/22 04:47:04;;;;;;;57.93;27.47;;;;;;;2.05;nan;96438.25;5145433;27;20199;-73
2022/03/22 04:49:31;;;;;;;63.53;27.57;;;;;;;2.05;nan;96438.25;5144387;27;20313;-71
2022/03/22 04:57:30;;;;;;;60.30;27.80;;;;;;;1.89;nan;96433.75;5145546;27;20817;-72
2022/03/22 04:59:57;;;;;;;36.03;15.47;;;;;;;2.44;nan;96443.25;5145324;27;20660;-71
2022/03/22 05:02:24;;;;;;;24.07;12.20;;;;;;;2.38;nan;96441.47;5147319;27;20213;-72
2022/03/22 05:04:51;;;;;;;25.80;12.70;;;;;;;3.07;nan;96435.22;5145741;27;20213;-71
2022/03/22 05:07:17;;;;;;;30.77;13.80;;;;;;;3.80;nan;96448.94;5144941;27;20347;-71
2022/03/22 05:09:45;;;;;;;20.83;12.83;;;;;;;4.73;nan;96438.41;5146876;27;20728;-72
2022/03/22 05:12:13;;;;;;;25.48;13.70;;;;;;;5.41;nan;96425.63;5146277;27;20619;-72
2022/03/22 05:14:42;;;;;;;31.23;13.77;;;;;;;5.97;nan;96422.69;5146839;27;20207;-71
2022/03/22 05:17:11;;;;;;;35.73;12.73;;;;;;;6.64;nan;96422.19;5145613;27;20200;-70
2022/03/22 05:19:39;;;;;;;26.27;13.05;;;;;;;7.68;nan;96413.00;5146044;27;20315;-71
2022/03/22 05:22:06;;;;;;;29.40;12.82;;;;;;;8.75;nan;96418.66;5146038;27;20916;-71
2022/03/22 05:24:33;;;;;;;20.20;13.40;;;;;;;9.76;nan;96417.13;5146773;27;20583;-69
2022/03/22 05:27:02;;;;;;;82.95;35.72;;;;;;;10.72;nan;96411.03;5145852;27;20278;-70
2022/03/22 05:29:29;;;;;;;30.42;13.32;;;;;;;11.29;nan;96407.72;5144318;27;20653;-70
2022/03/22 05:31:55;;;;;;;20.63;13.07;;;;;;;11.75;nan;96412.94;5145043;27;20564;-70
2022/03/22 05:34:22;;;;;;;23.38;14.55;;;;;;;11.63;nan;96420.78;5146257;27;20243;-72
2022/03/22 05:36:49;;;;;;;19.83;12.73;;;;;;;12.68;nan;96408.69;5143373;27;20717;-72
2022/03/22 05:39:16;;;;;;;30.52;13.27;;;;;;;13.88;nan;96408.53;5143577;27;20284;-71
2022/03/22 05:41:43;;;;;;;22.80;12.00;;;;;;;15.21;nan;96401.44;5146507;27;20284;-71
2022/03/22 05:44:13;;;;;;;24.67;13.80;;;;;;;15.64;nan;96398.38;5144582;27;20260;-70
2022/03/22 05:46:40;;;;;;;20.08;13.10;;;;;;;16.46;nan;96392.19;5145807;27;20205;-71
2022/03/22 05:49:08;;;;;;;17.52;11.30;;;;;;;16.87;nan;96403.56;5144341;27;20263;-73
2022/03/22 05:51:35;;;;;;;34.85;16.00;;;;;;;18.01;nan;96393.13;5143332;27;20612;-71
2022/03/22 05:54:02;;;;;;;41.42;16.85;;;;;;;18.24;nan;96397.28;5145877;27;20684;-71
2022/03/22 05:56:29;;;;;;;16.63;10.10;;;;;;;19.07;nan;96389.34;5145554;27;20199;-71
2022/03/22 05:58:58;;;;;;;24.13;11.07;;;;;;;18.78;nan;96396.66;5142083;27;20295;-71
2022/03/22 06:01:27;;;;;;;19.90;10.75;;;;;;;17.07;nan;96392.56;5145750;27;20248;-72
2022/03/22 06:03:54;;;;;;;19.73;10.77;;;;;;;14.97;nan;96400.44;5145604;27;20271;-71
2022/03/22 06:06:21;;;;;;;14.65;9.77;;;;;;;14.09;nan;96394.38;5146600;27;20295;-71
2022/03/22 06:08:50;;;;;;;13.48;10.48;;;;;;;12.51;nan;96402.22;5145005;27;20195;-71
2022/03/22 06:11:18;;;;;;;19.10;9.52;;;;;;;12.62;nan;96403.72;5145440;27;20350;-71
2022/03/22 06:13:45;;;;;;;22.75;9.68;;;;;;;13.72;nan;96402.97;5145363;27;20199;-71
2022/03/22 06:16:12;;;;;;;16.08;9.82;;;;;;;14.54;nan;96405.13;5145455;27;20199;-71
2022/03/22 06:18:40;;;;;;;16.20;9.75;;;;;;;15.58;nan;96398.59;5143505;27;20198;-71
2022/03/22 06:21:07;;;;;;;17.30;10.65;;;;;;;16.05;nan;96388.50;5143904;27;20206;-71
2022/03/22 06:23:34;;;;;;;16.73;9.70;;;;;;;17.25;nan;96391.00;5145467;27;20275;-71
2022/03/22 06:26:02;;;;;;;15.13;9.90;;;;;;;18.62;nan;96391.34;5144952;27;20510;-71
2022/03/22 06:28:29;;;;;;;18.55;9.73;;;;;;;20.52;nan;96383.16;5143205;27;20700;-71
2022/03/22 06:30:56;;;;;;;12.20;8.68;;;;;;;21.34;nan;96376.97;5144266;27;20275;-71
2022/03/22 06:33:24;;;;;;;12.27;8.85;;;;;;;22.42;nan;96371.69;5144948;27;20235;-71
2022/03/22 06:35:53;;;;;;;11.63;9.75;;;;;;;21.79;nan;96379.66;5146456;27;20406;-71
2022/03/22 06:38:20;;;;;;;14.63;9.98;;;;;;;21.56;nan;96374.03;5143959;27;20285;-71
2022/03/22 06:40:50;;;;;;;12.85;8.70;;;;;;;22.17;nan;96380.91;5143253;27;20227;-71
2022/03/22 06:43:18;;;;;;;18.63;10.85;;;;;;;21.20;nan;96384.69;5143331;27;20682;-72
2022/03/22 06:45:46;;;;;;;10.70;9.60;;;;;;;18.84;nan;96386.06;5144337;27;20309;-72
2022/03/22 06:48:15;;;;;;;28.13;10.55;;;;;;;19.15;nan;96389.81;5145349;27;20199;-71
2022/03/22 06:50:43;;;;;;;13.73;9.63;;;;;;;19.01;nan;96382.75;5147606;27;20267;-71
2022/03/22 06:53:11;;;;;;;13.73;9.27;;;;;;;18.68;nan;96385.09;5148774;27;20594;-71
2022/03/22 06:55:38;;;;;;;13.32;9.13;;;;;;;17.44;nan;96381.69;5148983;27;20203;-71
2022/03/22 06:58:07;;;;;;;15.45;9.70;;;;;;;16.60;nan;96386.56;5148276;27;20209;-70
2022/03/22 07:00:34;;;;;;;11.57;8.48;;;;;;;16.03;nan;96385.16;5149227;27;20230;-72
2022/03/22 07:03:02;;;;;;;12.00;9.00;;;;;;;17.25;nan;96381.56;5148868;27;20278;-71
2022/03/22 07:05:30;;;;;;;14.15;9.93;;;;;;;19.10;nan;96384.88;5146998;27;20226;-72
2022/03/22 07:07:57;;;;;;;10.43;9.07;;;;;;;19.60;nan;96376.53;5147782;27;20825;-71
2022/03/22 07:10:26;;;;;;;14.85;9.38;;;;;;;17.11;nan;96377.84;5148144;27;20206;-70
2022/03/22 07:12:54;;;;;;;14.90;9.85;;;;;;;14.03;nan;96389.41;5147222;27;20238;-70
2022/03/22 07:15:23;;;;;;;13.38;9.60;;;;;;;13.34;nan;96391.13;5149353;27;20218;-71
2022/03/22 07:17:52;;;;;;;11.48;9.10;;;;;;;15.72;nan;96377.66;5147372;27;20199;-72
2022/03/22 07:20:19;;;;;;;11.95;8.82;;;;;;;18.14;nan;96378.81;5147796;27;20298;-71
2022/03/22 07:22:46;;;;;;;14.50;10.50;;;;;;;18.69;nan;96371.31;5149057;27;20649;-70
2022/03/22 07:25:13;;;;;;;15.25;9.35;;;;;;;18.52;nan;96373.78;5148185;27;20270;-72
2022/03/22 07:27:41;;;;;;;12.02;9.27;;;;;;;17.18;nan;96375.00;5149008;27;20873;-73
2022/03/22 07:30:10;;;;;;;12.63;8.55;;;;;;;16.08;nan;96378.16;5145753;27;20203;-71
2022/03/22 07:32:37;;;;;;;15.80;11.93;;;;;;;16.45;nan;96371.72;5147295;27;20314;-71
2022/03/22 07:35:06;;;;;;;35.45;22.63;;;;;;;15.29;nan;96365.34;5148806;27;20231;-70
2022/03/22 07:37:34;;;;;;;15.75;8.73;;;;;;;13.57;nan;96372.69;5146661;27;20830;-70
2022/03/22 07:40:01;;;;;;;13.68;9.30;;;;;;;12.44;nan;96364.94;5147877;27;20712;-71
2022/03/22 07:42:29;;;;;;;9.68;8.55;;;;;;;11.90;nan;96365.13;5148615;27;20235;-71
2022/03/22 07:45:00;;;;;;;12.75;8.50;;;;;;;11.87;nan;96359.28;5150073;27;20195;-70
2022/03/22 07:47:27;;;;;;;13.30;9.23;;;;;;;11.39;nan;96368.53;5148414;27;20195;-71
2022/03/22 07:55:22;;;;;;;19.10;9.90;;;;;;;11.07;nan;96366.50;5147641;27;20282;-72
2022/03/22 07:57:49;;;;;;;19.15;8.88;;;;;;;10.72;nan;96375.44;5147085;27;20276;-71
2022/03/22 08:00:19;;;;;;;12.63;8.27;;;;;;;10.61;nan;96366.28;5145406;27;20824;-71
2022/03/22 08:02:54;;;;;;;13.18;9.18;;;;;;;10.53;nan;96371.47;5146178;27;20226;-70
2022/03/22 08:05:20;;;;;;;16.05;9.77;;;;;;;10.32;nan;96366.66;5145302;27;20198;-70
2022/03/22 08:07:47;;;;;;;14.77;9.80;;;;;;;10.32;nan;96369.19;5147106;27;20252;-70
2022/03/22 08:10:14;;;;;;;13.68;9.00;;;;;;;10.17;nan;96373.53;5147729;27;20231;-70
2022/03/22 08:12:42;;;;;;;12.55;9.07;;;;;;;10.12;nan;96367.69;5145414;27;20293;-72
2022/03/22 08:15:09;;;;;;;13.43;8.25;;;;;;;9.97;nan;96364.44;5148014;27;20634;-71
2022/03/22 08:17:39;;;;;;;15.43;8.35;;;;;;;9.80;nan;96367.16;5146755;27;20642;-71
2022/03/22 08:20:07;;;;;;;11.10;8.18;;;;;;;9.74;nan;96369.75;5146364;27;20253;-72
2022/03/22 08:22:45;;;;;;;16.17;9.43;;;;;;;9.94;nan;96372.94;5147222;27;20203;-70
2022/03/22 08:25:13;;;;;;;11.73;7.90;;;;;;;9.84;nan;96368.81;5147631;27;20206;-72
2022/03/22 08:27:40;;;;;;;11.27;8.25;;;;;;;9.58;nan;96364.00;5146719;27;20298;-71
2022/03/22 08:30:07;;;;;;;10.65;8.23;;;;;;;9.73;nan;96368.06;5146145;27;20198;-73
2022/03/22 08:32:34;;;;;;;12.60;8.65;;;;;;;9.73;nan;96368.06;5144955;27;20258;-71
2022/03/22 08:35:03;;;;;;;11.15;8.13;;;;;;;9.62;nan;96367.34;5147012;27;20221;-71
2022/03/22 08:37:29;;;;;;;16.70;9.18;;;;;;;9.47;nan;96369.16;5146695;27;20673;-71
2022/03/22 08:39:56;;;;;;;10.23;7.97;;;;;;;9.36;nan;96367.56;5145954;27;20223;-71
2022/03/22 08:42:23;;;;;;;14.60;8.18;;;;;;;9.10;nan;96365.22;5148456;27;20279;-70
2022/03/22 08:44:49;;;;;;;16.67;8.63;;;;;;;9.32;nan;96359.13;5147391;27;20199;-71
2022/03/22 08:47:17;;;;;;;49.40;24.50;;;;;;;9.63;nan;96361.41;5147291;27;20275;-71
2022/03/22 08:49:43;;;;;;;10.35;8.45;;;;;;;9.53;nan;96361.50;5146206;27;20203;-71
2022/03/22 08:52:13;;;;;;;10.90;7.97;;;;;;;9.48;nan;96350.53;5144578;27;20195;-70
2022/03/22 08:54:40;;;;;;;14.25;9.32;;;;;;;9.50;nan;96341.22;5146189;27;20773;-70
2022/03/22 08:57:07;;;;;;;12.38;9.18;;;;;;;9.52;nan;96346.28;5147741;27;20281;-70
2022/03/22 08:59:34;;;;;;;17.50;9.60;;;;;;;9.51;nan;96350.50;5145809;27;20759;-72
2022/03/22 09:02:01;;;;;;;19.90;9.05;;;;;;;9.45;nan;96350.56;5145150;27;21870;-72
2022/03/22 09:07:14;;;;;;;14.20;9.25;;;;;;;9.25;nan;96324.50;5145991;27;20203;-73
2022/03/22 09:09:41;;;;;;;13.05;8.77;;;;;;;9.16;nan;96329.66;5147064;27;20202;-72
2022/03/22 09:12:09;;;;;;;16.45;9.98;;;;;;;9.03;nan;96328.06;5146313;27;20203;-71
2022/03/22 09:14:36;;;;;;;13.15;9.38;;;;;;;9.21;nan;96327.91;5144478;27;20863;-71
2022/03/22 09:17:04;;;;;;;15.57;9.15;;;;;;;9.33;nan;96321.91;5142646;27;20235;-70
2022/03/22 09:19:33;;;;;;;14.02;8.98;;;;;;;9.32;nan;96322.78;5141010;27;20883;-72
2022/03/22 09:22:01;;;;;;;14.65;9.27;;;;;;;9.10;nan;96332.25;5146546;27;20662;-71
2022/03/22 09:24:29;;;;;;;22.25;10.80;;;;;;;9.12;nan;96328.00;5145899;27;20568;-73
2022/03/22 09:26:56;;;;;;;14.45;9.35;;;;;;;9.43;nan;96329.41;5144559;27;20202;-72
2022/03/22 09:29:23;;;;;;;20.30;9.05;;;;;;;9.41;nan;96315.91;5147374;27;20299;-72
2022/03/22 09:31:51;;;;;;;16.08;9.80;;;;;;;9.38;nan;96313.41;5138030;27;20731;-72
2022/03/22 09:34:17;;;;;;;14.27;8.88;;;;;;;9.65;nan;96299.59;5051194;27;20210;-72
2022/03/22 09:36:44;;;;;;;15.02;7.03;;;;;;;9.76;nan;96302.03;5053288;27;20244;-71
2022/03/22 09:39:11;;;;;;;13.57;8.48;;;;;;;9.86;nan;96278.25;5046910;27;20831;-71
2022/03/22 09:41:40;;;;;;;8.18;5.88;;;;;;;9.40;nan;96304.06;5053981;27;20250;-71
2022/03/22 09:44:09;;;;;;;12.40;7.05;;;;;;;9.57;nan;96292.94;5050325;27;20202;-72
2022/03/22 09:46:37;;;;;;;8.05;5.75;;;;;;;9.91;nan;96291.69;5048733;27;20661;-72
2022/03/22 09:49:04;;;;;;;9.65;5.85;;;;;;;9.97;nan;96296.72;5064877;27;20202;-72
2022/03/22 09:51:47;;;;;;;5.18;4.22;;;;;;;9.76;nan;96284.28;5050000;27;20230;-72
2022/03/22 09:54:15;;;;;;;10.25;6.05;;;;;;;9.73;nan;96299.53;5050322;27;20239;-72
2022/03/22 09:56:45;;;;;;;9.20;5.28;;;;;;;9.65;nan;96284.38;5055796;27;20202;-71
2022/03/22 09:59:12;;;;;;;11.00;5.22;;;;;;;9.74;nan;96284.28;5050678;27;20692;-71
2022/03/22 10:01:39;;;;;;;8.20;5.05;;;;;;;9.77;nan;96273.25;5055544;27;20908;-71
2022/03/22 10:04:08;;;;;;;12.07;5.55;;;;;;;10.08;nan;96274.59;5045706;27;20198;-72
2022/03/22 10:06:36;;;;;;;10.82;5.35;;;;;;;10.54;nan;96272.31;5047158;27;21383;-72
2022/03/22 10:09:07;;;;;;;6.05;4.70;;;;;;;10.60;nan;96286.63;5039065;27;20199;-73
2022/03/22 10:11:39;;;;;;;9.15;5.40;;;;;;;10.42;nan;96253.84;5052698;27;20198;-71
2022/03/22 10:14:09;;;;;;;10.63;5.85;;;;;;;10.41;nan;96258.06;5056289;27;20213;-73
2022/03/22 10:16:51;;;;;;;11.82;6.07;;;;;;;10.62;nan;96262.03;5061376;27;20330;-72
2022/03/22 10:19:19;;;;;;;7.30;4.72;;;;;;;10.50;nan;96252.03;5048131;27;20590;-71
2022/03/22 10:21:46;;;;;;;9.55;6.57;;;;;;;10.32;nan;96249.75;5049628;27;20233;-70
2022/03/22 10:24:14;;;;;;;7.95;6.22;;;;;;;10.47;nan;96247.00;5047003;27;20206;-72
2022/03/22 10:26:44;;;;;;;9.48;5.20;;;;;;;10.50;nan;96240.16;5052350;27;20225;-72
2022/03/22 10:29:14;;;;;;;7.75;6.07;;;;;;;10.71;nan;96226.28;5054312;27;20213;-71
2022/03/22 10:31:42;;;;;;;11.07;6.93;;;;;;;11.07;nan;96224.03;5054744;27;20198;-71
2022/03/22 10:34:10;;;;;;;6.53;5.90;;;;;;;11.40;nan;96218.31;5049080;27;20814;-74
2022/03/22 10:36:37;;;;;;;10.23;6.43;;;;;;;11.22;nan;96224.59;5052993;27;20202;-73
2022/03/22 10:39:06;;;;;;;9.05;6.75;;;;;;;11.20;nan;96220.38;5049948;27;20208;-72
2022/03/22 10:41:37;;;;;;;10.85;7.00;;;;;;;11.15;nan;96228.09;5044497;27;20724;-71
2022/03/22 10:44:06;;;;;;;8.07;6.57;;;;;;;11.27;nan;96219.44;5050312;27;20260;-71
2022/03/22 10:46:36;;;;;;;9.15;6.45;;;;;;;11.45;nan;96213.16;5046051;27;20297;-72
2022/03/22 10:49:06;;;;;;;11.50;6.20;;;;;;;11.38;nan;96198.88;5050200;27;20202;-72
2022/03/22 10:51:40;;;;;;;12.40;8.45;;;;;;;11.27;nan;96201.63;5053623;27;20212;-72
2022/03/22 10:54:08;;;;;;;10.60;6.88;;;;;;;11.43;nan;96200.44;5049824;27;20233;-72
2022/03/22 10:56:35;;;;;;;10.27;6.07;;;;;;;11.59;nan;96188.28;5050622;27;20194;-71
2022/03/22 10:59:03;;;;;;;7.80;5.93;;;;;;;11.46;nan;96204.66;5043439;27;21943;-71
2022/03/22 11:01:31;;;;;;;12.40;5.88;;;;;;;11.61;nan;96191.66;5056052;27;20290;-71
2022/03/22 11:04:00;;;;;;;11.30;5.97;;;;;;;11.47;nan;96184.25;5042984;27;20649;-72
2022/03/22 11:06:31;;;;;;;8.45;5.68;;;;;;;11.50;nan;96176.56;5052449;27;20210;-73
2022/03/22 11:09:00;;;;;;;6.68;5.25;;;;;;;11.64;nan;96171.19;5057042;27;20207;-72
2022/03/22 11:11:30;;;;;;;5.47;4.72;;;;;;;11.62;nan;96172.13;5054026;27;20199;-74
2022/03/22 11:13:57;;;;;;;7.05;5.13;;;;;;;11.77;nan;96159.94;5059869;27;20194;-74
2022/03/22 11:16:27;;;;;;;8.93;6.38;;;;;;;11.77;nan;96162.47;5060985;27;20703;-72
2022/03/22 11:18:55;;;;;;;6.40;5.63;;;;;;;11.87;nan;96147.84;5053636;27;20210;-70
2022/03/22 11:21:23;;;;;;;7.72;5.97;;;;;;;11.95;nan;96145.97;5052401;27;20234;-71
2022/03/22 11:23:50;;;;;;;9.00;5.63;;;;;;;11.92;nan;96149.41;5047190;27;20218;-71
2022/03/22 11:26:19;;;;;;;8.60;6.03;;;;;;;12.00;nan;96158.59;5045990;27;20202;-71
2022/03/22 11:28:48;;;;;;;7.90;5.45;;;;;;;12.17;nan;96139.50;5049939;27;20971;-70
2022/03/22 11:31:19;;;;;;;7.97;5.55;;;;;;;12.22;nan;96140.25;5049269;27;20596;-72
2022/03/22 11:36:42;;;;;;;11.45;6.13;;;;;;;12.41;nan;96139.81;5151364;27;20249;-74
2022/03/22 11:39:10;;;;;;;5.65;5.07;;;;;;;12.43;nan;96120.22;5153330;27;20594;-71
2022/03/22 11:44:29;;;;;;;7.05;5.60;;;;;;;12.51;nan;96126.84;5152271;27;20195;-72
2022/03/22 11:47:05;;;;;;;5.95;5.35;;;;;;;12.62;nan;96134.19;5151631;27;20218;-70
2022/03/22 11:49:32;;;;;;;8.50;5.78;;;;;;;12.61;nan;96124.91;5151841;27;20191;-76
2022/03/22 11:52:12;;;;;;;12.40;5.65;;;;;;;12.78;nan;96117.66;5151811;27;20196;-71
2022/03/22 11:54:40;;;;;;;10.35;6.13;;;;;;;13.22;nan;96113.97;5152430;27;20251;-72
2022/03/22 11:57:08;;;;;;;11.48;5.82;;;;;;;13.28;nan;96110.41;5154238;27;20639;-72
2022/03/22 11:59:44;;;;;;;6.25;4.80;;;;;;;13.20;nan;96107.22;5154688;27;20188;-72
2022/03/22 12:02:15;;;;;;;5.32;4.88;;;;;;;13.17;nan;96104.75;5155223;27;20231;-72
2022/03/22 12:04:43;;;;;;;6.28;4.97;;;;;;;13.22;nan;96095.25;5154912;27;20681;-72
2022/03/22 12:07:13;;;;;;;11.45;5.60;;;;;;;13.13;nan;96092.91;5154668;27;20187;-71
2022/03/22 12:09:41;;;;;;;7.13;5.32;;;;;;;12.76;nan;96090.50;5154861;27;20256;-72
2022/03/22 12:12:11;;;;;;;9.85;5.35;;;;;;;12.52;nan;96081.78;5154029;27;20591;-71
2022/03/22 12:14:39;;;;;;;7.60;5.63;;;;;;;12.70;nan;96078.75;5154414;27;20227;-71
2022/03/22 12:17:06;;;;;;;6.18;5.03;;;;;;;12.85;nan;96075.81;5154060;27;20248;-71
2022/03/22 12:19:35;;;;;;;9.73;4.68;;;;;;;12.85;nan;96088.56;5154744;27;20223;-71